sensor_id;sensor_type;location;lat;lon;timestamp;P1;durP1;ratioP1;P2;durP2;ratioP2
19205;SDS011;59358;52.134;5.596;2022-11-15T00:02:03;58.55;;;29.27;;
19205;SDS011;59358;52.134;5.596;2022-11-15T00:04:30;46.80;;;26.98;;
19205;SDS011;59358;52.134;5.596;2022-11-15T00:06:57;53.03;;;28.02;;
19205;SDS011;59358;52.134;5.596;2022-11-15T00:09:25;60.85;;;28.63;;
19205;SDS011;59358;52.134;5.596;2022-11-15T00:11:52;70.22;;;31.45;;
19205;SDS011;59358;52.134;5.596;2022-11-15T00:14:19;67.32;;;30.92;;
19205;SDS011;59358;52.134;5.596;2022-11-15T00:16:46;67.10;;;31.35;;
19205;SDS011;59358;52.134;5.596;2022-11-15T00:19:13;67.20;;;30.60;;
19205;SDS011;59358;52.134;5.596;2022-11-15T00:21:39;66.57;;;30.60;;
19205;SDS011;59358;52.134;5.596;2022-11-15T00:24:06;71.85;;;33.30;;
19205;SDS011;59358;52.134;5.596;2022-11-15T00:26:34;75.80;;;32.72;;
19205;SDS011;59358;52.134;5.596;2022-11-15T00:29:01;87.10;;;33.38;;
19205;SDS011;59358;52.134;5.596;2022-11-15T00:31:28;76.90;;;32.92;;
19205;SDS011;59358;52.134;5.596;2022-11-15T00:33:55;82.43;;;34.10;;
19205;SDS011;59358;52.134;5.596;2022-11-15T00:36:21;84.22;;;33.15;;
19205;SDS011;59358;52.134;5.596;2022-11-15T00:38:48;85.78;;;37.17;;
19205;SDS011;59358;52.134;5.596;2022-11-15T00:41:15;84.57;;;36.15;;
19205;SDS011;59358;52.134;5.596;2022-11-15T00:43:43;85.85;;;34.67;;
19205;SDS011;59358;52.134;5.596;2022-11-15T00:46:10;85.80;;;36.78;;
19205;SDS011;59358;52.134;5.596;2022-11-15T00:48:37;90.72;;;36.95;;
19205;SDS011;59358;52.134;5.596;2022-11-15T00:51:04;87.47;;;36.95;;
19205;SDS011;59358;52.134;5.596;2022-11-15T00:53:30;90.10;;;37.90;;
19205;SDS011;59358;52.134;5.596;2022-11-15T00:55:57;93.90;;;36.45;;
19205;SDS011;59358;52.134;5.596;2022-11-15T00:58:24;88.18;;;38.17;;
19205;SDS011;59358;52.134;5.596;2022-11-15T01:00:52;87.32;;;38.47;;
19205;SDS011;59358;52.134;5.596;2022-11-15T01:03:19;92.25;;;37.50;;
19205;SDS011;59358;52.134;5.596;2022-11-15T01:05:46;86.30;;;36.78;;
19205;SDS011;59358;52.134;5.596;2022-11-15T01:08:13;94.25;;;38.38;;
19205;SDS011;59358;52.134;5.596;2022-11-15T01:10:41;89.65;;;37.95;;
19205;SDS011;59358;52.134;5.596;2022-11-15T01:13:08;89.18;;;38.95;;
19205;SDS011;59358;52.134;5.596;2022-11-15T01:15:38;85.95;;;37.58;;
19205;SDS011;59358;52.134;5.596;2022-11-15T01:18:07;80.57;;;36.83;;
19205;SDS011;59358;52.134;5.596;2022-11-15T01:20:34;78.95;;;35.97;;
19205;SDS011;59358;52.134;5.596;2022-11-15T01:23:05;78.63;;;36.17;;
19205;SDS011;59358;52.134;5.596;2022-11-15T01:25:31;74.28;;;35.70;;
19205;SDS011;59358;52.134;5.596;2022-11-15T01:27:58;80.20;;;35.78;;
19205;SDS011;59358;52.134;5.596;2022-11-15T01:30:25;80.18;;;35.78;;
19205;SDS011;59358;52.134;5.596;2022-11-15T01:32:52;85.22;;;37.42;;
19205;SDS011;59358;52.134;5.596;2022-11-15T01:35:20;80.25;;;36.85;;
19205;SDS011;59358;52.134;5.596;2022-11-15T01:37:47;82.70;;;36.80;;
19205;SDS011;59358;52.134;5.596;2022-11-15T01:40:14;80.05;;;35.75;;
19205;SDS011;59358;52.134;5.596;2022-11-15T01:42:41;84.03;;;38.08;;
19205;SDS011;59358;52.134;5.596;2022-11-15T01:45:09;88.97;;;37.78;;
19205;SDS011;59358;52.134;5.596;2022-11-15T01:47:41;80.40;;;36.28;;
19205;SDS011;59358;52.134;5.596;2022-11-15T01:50:12;81.43;;;36.67;;
19205;SDS011;59358;52.134;5.596;2022-11-15T01:52:44;77.68;;;36.38;;
19205;SDS011;59358;52.134;5.596;2022-11-15T01:55:13;84.00;;;37.50;;
19205;SDS011;59358;52.134;5.596;2022-11-15T01:57:42;83.63;;;38.30;;
19205;SDS011;59358;52.134;5.596;2022-11-15T02:00:10;80.93;;;36.08;;
19205;SDS011;59358;52.134;5.596;2022-11-15T02:02:38;81.25;;;36.92;;
19205;SDS011;59358;52.134;5.596;2022-11-15T02:05:06;79.80;;;37.00;;
19205;SDS011;59358;52.134;5.596;2022-11-15T02:07:34;82.97;;;37.90;;
19205;SDS011;59358;52.134;5.596;2022-11-15T02:10:04;90.95;;;38.42;;
19205;SDS011;59358;52.134;5.596;2022-11-15T02:12:34;94.35;;;39.78;;
19205;SDS011;59358;52.134;5.596;2022-11-15T02:15:02;88.38;;;39.78;;
19205;SDS011;59358;52.134;5.596;2022-11-15T02:17:37;91.43;;;40.03;;
19205;SDS011;59358;52.134;5.596;2022-11-15T02:20:28;88.20;;;39.53;;
19205;SDS011;59358;52.134;5.596;2022-11-15T02:23:16;80.25;;;38.13;;
19205;SDS011;59358;52.134;5.596;2022-11-15T02:26:10;88.03;;;38.55;;
19205;SDS011;59358;52.134;5.596;2022-11-15T02:28:53;83.90;;;39.28;;
19205;SDS011;59358;52.134;5.596;2022-11-15T02:31:28;78.10;;;39.55;;
19205;SDS011;59358;52.134;5.596;2022-11-15T02:33:59;78.88;;;38.05;;
19205;SDS011;59358;52.134;5.596;2022-11-15T02:36:34;88.13;;;40.53;;
19205;SDS011;59358;52.134;5.596;2022-11-15T02:39:10;74.20;;;38.30;;
19205;SDS011;59358;52.134;5.596;2022-11-15T02:41:45;87.38;;;38.47;;
19205;SDS011;59358;52.134;5.596;2022-11-15T02:44:17;72.25;;;37.05;;
19205;SDS011;59358;52.134;5.596;2022-11-15T02:46:51;77.00;;;39.40;;
19205;SDS011;59358;52.134;5.596;2022-11-15T02:49:38;75.22;;;37.75;;
19205;SDS011;59358;52.134;5.596;2022-11-15T02:52:08;79.43;;;38.78;;
19205;SDS011;59358;52.134;5.596;2022-11-15T02:54:34;74.60;;;38.88;;
19205;SDS011;59358;52.134;5.596;2022-11-15T02:57:02;69.18;;;36.00;;
19205;SDS011;59358;52.134;5.596;2022-11-15T02:59:36;72.47;;;38.88;;
19205;SDS011;59358;52.134;5.596;2022-11-15T03:02:20;73.10;;;38.83;;
19205;SDS011;59358;52.134;5.596;2022-11-15T03:05:02;73.43;;;36.95;;
19205;SDS011;59358;52.134;5.596;2022-11-15T03:07:40;70.65;;;37.05;;
19205;SDS011;59358;52.134;5.596;2022-11-15T03:10:16;66.28;;;36.45;;
19205;SDS011;59358;52.134;5.596;2022-11-15T03:12:49;69.93;;;36.10;;
19205;SDS011;59358;52.134;5.596;2022-11-15T03:15:22;65.28;;;37.65;;
19205;SDS011;59358;52.134;5.596;2022-11-15T03:17:58;69.32;;;37.67;;
19205;SDS011;59358;52.134;5.596;2022-11-15T03:20:28;63.47;;;35.63;;
19205;SDS011;59358;52.134;5.596;2022-11-15T03:23:05;61.88;;;33.92;;
19205;SDS011;59358;52.134;5.596;2022-11-15T03:25:36;58.63;;;34.88;;
19205;SDS011;59358;52.134;5.596;2022-11-15T03:28:08;63.33;;;35.15;;
19205;SDS011;59358;52.134;5.596;2022-11-15T03:30:38;62.08;;;35.70;;
19205;SDS011;59358;52.134;5.596;2022-11-15T03:33:07;65.32;;;35.08;;
19205;SDS011;59358;52.134;5.596;2022-11-15T03:35:36;63.28;;;35.25;;
19205;SDS011;59358;52.134;5.596;2022-11-15T03:38:06;57.53;;;32.78;;
19205;SDS011;59358;52.134;5.596;2022-11-15T03:40:38;57.28;;;32.33;;
19205;SDS011;59358;52.134;5.596;2022-11-15T03:43:07;59.78;;;34.10;;
19205;SDS011;59358;52.134;5.596;2022-11-15T03:45:43;58.35;;;35.17;;
19205;SDS011;59358;52.134;5.596;2022-11-15T03:48:14;60.60;;;34.97;;
19205;SDS011;59358;52.134;5.596;2022-11-15T03:50:46;56.97;;;31.77;;
19205;SDS011;59358;52.134;5.596;2022-11-15T03:53:14;57.13;;;32.75;;
19205;SDS011;59358;52.134;5.596;2022-11-15T03:55:40;59.28;;;33.63;;
19205;SDS011;59358;52.134;5.596;2022-11-15T03:58:07;54.28;;;33.53;;
19205;SDS011;59358;52.134;5.596;2022-11-15T04:00:34;64.32;;;35.25;;
19205;SDS011;59358;52.134;5.596;2022-11-15T04:03:01;60.13;;;35.08;;
19205;SDS011;59358;52.134;5.596;2022-11-15T04:05:29;62.58;;;35.05;;
19205;SDS011;59358;52.134;5.596;2022-11-15T04:07:56;64.63;;;35.42;;
19205;SDS011;59358;52.134;5.596;2022-11-15T04:10:23;62.28;;;34.70;;
19205;SDS011;59358;52.134;5.596;2022-11-15T04:12:50;64.32;;;34.33;;
19205;SDS011;59358;52.134;5.596;2022-11-15T04:15:17;68.22;;;35.92;;
19205;SDS011;59358;52.134;5.596;2022-11-15T04:17:46;65.32;;;35.30;;
19205;SDS011;59358;52.134;5.596;2022-11-15T04:20:15;63.20;;;34.25;;
19205;SDS011;59358;52.134;5.596;2022-11-15T04:23:03;62.08;;;35.58;;
19205;SDS011;59358;52.134;5.596;2022-11-15T04:25:49;76.40;;;38.50;;
19205;SDS011;59358;52.134;5.596;2022-11-15T04:28:18;58.00;;;34.75;;
19205;SDS011;59358;52.134;5.596;2022-11-15T04:30:45;62.67;;;36.42;;
19205;SDS011;59358;52.134;5.596;2022-11-15T04:33:12;63.85;;;35.50;;
19205;SDS011;59358;52.134;5.596;2022-11-15T04:35:39;59.67;;;33.45;;
19205;SDS011;59358;52.134;5.596;2022-11-15T04:38:07;61.25;;;34.90;;
19205;SDS011;59358;52.134;5.596;2022-11-15T04:40:35;60.53;;;34.22;;
19205;SDS011;59358;52.134;5.596;2022-11-15T04:43:02;57.17;;;32.80;;
19205;SDS011;59358;52.134;5.596;2022-11-15T04:45:29;65.97;;;33.55;;
19205;SDS011;59358;52.134;5.596;2022-11-15T04:47:56;59.80;;;34.83;;
19205;SDS011;59358;52.134;5.596;2022-11-15T04:50:23;55.65;;;34.25;;
19205;SDS011;59358;52.134;5.596;2022-11-15T04:52:50;65.07;;;34.28;;
19205;SDS011;59358;52.134;5.596;2022-11-15T04:55:19;56.92;;;33.95;;
19205;SDS011;59358;52.134;5.596;2022-11-15T04:57:46;56.40;;;33.33;;
19205;SDS011;59358;52.134;5.596;2022-11-15T05:00:14;54.13;;;33.63;;
19205;SDS011;59358;52.134;5.596;2022-11-15T05:02:42;59.75;;;34.22;;
19205;SDS011;59358;52.134;5.596;2022-11-15T05:05:26;55.33;;;33.67;;
19205;SDS011;59358;52.134;5.596;2022-11-15T05:07:53;58.97;;;33.20;;
19205;SDS011;59358;52.134;5.596;2022-11-15T05:10:21;59.90;;;33.70;;
19205;SDS011;59358;52.134;5.596;2022-11-15T05:12:48;56.90;;;35.72;;
19205;SDS011;59358;52.134;5.596;2022-11-15T05:15:15;63.88;;;35.10;;
19205;SDS011;59358;52.134;5.596;2022-11-15T05:17:42;56.47;;;33.97;;
19205;SDS011;59358;52.134;5.596;2022-11-15T05:20:09;56.22;;;33.45;;
19205;SDS011;59358;52.134;5.596;2022-11-15T05:22:36;59.10;;;33.72;;
19205;SDS011;59358;52.134;5.596;2022-11-15T05:25:04;55.08;;;33.47;;
19205;SDS011;59358;52.134;5.596;2022-11-15T05:27:34;55.63;;;32.80;;
19205;SDS011;59358;52.134;5.596;2022-11-15T05:30:01;61.13;;;33.50;;
19205;SDS011;59358;52.134;5.596;2022-11-15T05:32:28;50.28;;;31.85;;
19205;SDS011;59358;52.134;5.596;2022-11-15T05:34:55;51.25;;;33.33;;
19205;SDS011;59358;52.134;5.596;2022-11-15T05:37:22;61.35;;;34.83;;
19205;SDS011;59358;52.134;5.596;2022-11-15T05:39:49;58.42;;;33.90;;
19205;SDS011;59358;52.134;5.596;2022-11-15T05:42:16;62.70;;;33.83;;
19205;SDS011;59358;52.134;5.596;2022-11-15T05:44:47;55.83;;;33.83;;
19205;SDS011;59358;52.134;5.596;2022-11-15T05:47:16;57.28;;;34.47;;
19205;SDS011;59358;52.134;5.596;2022-11-15T05:49:46;60.53;;;34.72;;
19205;SDS011;59358;52.134;5.596;2022-11-15T05:52:14;70.93;;;34.40;;
19205;SDS011;59358;52.134;5.596;2022-11-15T05:54:44;60.60;;;36.25;;
19205;SDS011;59358;52.134;5.596;2022-11-15T05:57:12;61.03;;;33.58;;
19205;SDS011;59358;52.134;5.596;2022-11-15T05:59:38;55.80;;;33.00;;
19205;SDS011;59358;52.134;5.596;2022-11-15T06:02:09;57.35;;;33.35;;
19205;SDS011;59358;52.134;5.596;2022-11-15T06:04:37;57.53;;;33.95;;
19205;SDS011;59358;52.134;5.596;2022-11-15T06:07:04;58.63;;;33.35;;
19205;SDS011;59358;52.134;5.596;2022-11-15T06:09:30;57.50;;;32.65;;
19205;SDS011;59358;52.134;5.596;2022-11-15T06:11:57;53.83;;;32.85;;
19205;SDS011;59358;52.134;5.596;2022-11-15T06:14:24;59.53;;;32.30;;
19205;SDS011;59358;52.134;5.596;2022-11-15T06:16:51;54.45;;;32.53;;
19205;SDS011;59358;52.134;5.596;2022-11-15T06:19:19;55.42;;;32.78;;
19205;SDS011;59358;52.134;5.596;2022-11-15T06:21:45;50.28;;;32.55;;
19205;SDS011;59358;52.134;5.596;2022-11-15T06:24:12;56.90;;;33.70;;
19205;SDS011;59358;52.134;5.596;2022-11-15T06:26:39;56.47;;;32.08;;
19205;SDS011;59358;52.134;5.596;2022-11-15T06:29:06;55.70;;;33.83;;
19205;SDS011;59358;52.134;5.596;2022-11-15T06:31:33;53.83;;;32.67;;
19205;SDS011;59358;52.134;5.596;2022-11-15T06:34:00;52.05;;;31.40;;
19205;SDS011;59358;52.134;5.596;2022-11-15T06:36:28;57.95;;;31.55;;
19205;SDS011;59358;52.134;5.596;2022-11-15T06:38:56;54.72;;;33.45;;
19205;SDS011;59358;52.134;5.596;2022-11-15T06:41:22;53.30;;;31.58;;
19205;SDS011;59358;52.134;5.596;2022-11-15T06:43:49;56.00;;;32.78;;
19205;SDS011;59358;52.134;5.596;2022-11-15T06:46:16;54.60;;;31.55;;
19205;SDS011;59358;52.134;5.596;2022-11-15T06:48:43;52.78;;;32.17;;
19205;SDS011;59358;52.134;5.596;2022-11-15T06:51:10;51.92;;;31.00;;
19205;SDS011;59358;52.134;5.596;2022-11-15T06:53:38;57.83;;;33.88;;
19205;SDS011;59358;52.134;5.596;2022-11-15T06:56:05;52.05;;;31.85;;
19205;SDS011;59358;52.134;5.596;2022-11-15T06:58:34;56.80;;;35.58;;
19205;SDS011;59358;52.134;5.596;2022-11-15T07:01:01;58.75;;;34.78;;
19205;SDS011;59358;52.134;5.596;2022-11-15T07:03:29;61.35;;;34.53;;
19205;SDS011;59358;52.134;5.596;2022-11-15T07:05:56;53.55;;;34.15;;
19205;SDS011;59358;52.134;5.596;2022-11-15T07:08:23;63.25;;;35.90;;
19205;SDS011;59358;52.134;5.596;2022-11-15T07:10:54;59.22;;;34.05;;
19205;SDS011;59358;52.134;5.596;2022-11-15T07:13:24;55.28;;;32.42;;
19205;SDS011;59358;52.134;5.596;2022-11-15T07:15:51;59.22;;;36.15;;
19205;SDS011;59358;52.134;5.596;2022-11-15T07:18:21;64.65;;;35.42;;
19205;SDS011;59358;52.134;5.596;2022-11-15T07:20:49;57.33;;;34.08;;
19205;SDS011;59358;52.134;5.596;2022-11-15T07:23:18;53.60;;;33.03;;
19205;SDS011;59358;52.134;5.596;2022-11-15T07:25:45;53.05;;;32.33;;
19205;SDS011;59358;52.134;5.596;2022-11-15T07:28:14;53.17;;;32.97;;
19205;SDS011;59358;52.134;5.596;2022-11-15T07:31:01;55.95;;;33.10;;
19205;SDS011;59358;52.134;5.596;2022-11-15T07:33:29;57.10;;;33.10;;
19205;SDS011;59358;52.134;5.596;2022-11-15T07:35:58;51.67;;;32.60;;
19205;SDS011;59358;52.134;5.596;2022-11-15T07:38:27;51.28;;;32.28;;
19205;SDS011;59358;52.134;5.596;2022-11-15T07:40:58;54.25;;;31.98;;
19205;SDS011;59358;52.134;5.596;2022-11-15T07:43:27;51.80;;;31.55;;
19205;SDS011;59358;52.134;5.596;2022-11-15T07:45:55;53.25;;;32.50;;
19205;SDS011;59358;52.134;5.596;2022-11-15T07:48:22;50.10;;;31.60;;
19205;SDS011;59358;52.134;5.596;2022-11-15T07:50:49;51.25;;;30.50;;
19205;SDS011;59358;52.134;5.596;2022-11-15T07:53:16;47.10;;;28.90;;
19205;SDS011;59358;52.134;5.596;2022-11-15T07:55:42;48.55;;;30.10;;
19205;SDS011;59358;52.134;5.596;2022-11-15T07:58:10;50.50;;;29.88;;
19205;SDS011;59358;52.134;5.596;2022-11-15T08:00:39;49.25;;;30.08;;
19205;SDS011;59358;52.134;5.596;2022-11-15T08:03:08;45.95;;;30.42;;
19205;SDS011;59358;52.134;5.596;2022-11-15T08:05:37;51.35;;;29.02;;
19205;SDS011;59358;52.134;5.596;2022-11-15T08:08:04;50.28;;;28.63;;
19205;SDS011;59358;52.134;5.596;2022-11-15T08:10:31;42.60;;;27.20;;
19205;SDS011;59358;52.134;5.596;2022-11-15T08:12:59;42.10;;;26.75;;
19205;SDS011;59358;52.134;5.596;2022-11-15T08:15:27;42.67;;;27.23;;
19205;SDS011;59358;52.134;5.596;2022-11-15T08:17:56;38.15;;;25.75;;
19205;SDS011;59358;52.134;5.596;2022-11-15T08:20:24;38.92;;;24.55;;
19205;SDS011;59358;52.134;5.596;2022-11-15T08:22:54;50.85;;;27.08;;
19205;SDS011;59358;52.134;5.596;2022-11-15T08:25:21;47.90;;;27.98;;
19205;SDS011;59358;52.134;5.596;2022-11-15T08:27:50;39.83;;;24.58;;
19205;SDS011;59358;52.134;5.596;2022-11-15T08:30:18;43.88;;;26.42;;
19205;SDS011;59358;52.134;5.596;2022-11-15T08:32:45;37.50;;;25.20;;
19205;SDS011;59358;52.134;5.596;2022-11-15T08:35:13;38.55;;;24.15;;
19205;SDS011;59358;52.134;5.596;2022-11-15T08:37:40;35.55;;;23.15;;
19205;SDS011;59358;52.134;5.596;2022-11-15T08:40:07;39.08;;;22.88;;
19205;SDS011;59358;52.134;5.596;2022-11-15T08:42:34;38.28;;;22.50;;
19205;SDS011;59358;52.134;5.596;2022-11-15T08:45:01;35.10;;;21.80;;
19205;SDS011;59358;52.134;5.596;2022-11-15T08:47:28;33.30;;;21.08;;
19205;SDS011;59358;52.134;5.596;2022-11-15T08:49:55;43.22;;;24.95;;
19205;SDS011;59358;52.134;5.596;2022-11-15T08:52:24;39.22;;;22.98;;
19205;SDS011;59358;52.134;5.596;2022-11-15T08:54:50;31.98;;;20.45;;
19205;SDS011;59358;52.134;5.596;2022-11-15T08:57:17;31.25;;;21.60;;
19205;SDS011;59358;52.134;5.596;2022-11-15T08:59:44;29.20;;;20.02;;
19205;SDS011;59358;52.134;5.596;2022-11-15T09:02:11;28.02;;;18.83;;
19205;SDS011;59358;52.134;5.596;2022-11-15T09:04:39;25.77;;;18.90;;
19205;SDS011;59358;52.134;5.596;2022-11-15T09:07:07;32.90;;;18.95;;
19205;SDS011;59358;52.134;5.596;2022-11-15T09:09:36;24.77;;;18.33;;
19205;SDS011;59358;52.134;5.596;2022-11-15T09:12:04;27.17;;;18.85;;
19205;SDS011;59358;52.134;5.596;2022-11-15T09:14:32;26.67;;;19.27;;
19205;SDS011;59358;52.134;5.596;2022-11-15T09:17:02;26.60;;;17.17;;
19205;SDS011;59358;52.134;5.596;2022-11-15T09:19:29;24.85;;;16.67;;
19205;SDS011;59358;52.134;5.596;2022-11-15T09:21:56;25.20;;;16.48;;
19205;SDS011;59358;52.134;5.596;2022-11-15T09:24:23;28.65;;;16.60;;
19205;SDS011;59358;52.134;5.596;2022-11-15T09:26:51;27.27;;;17.02;;
19205;SDS011;59358;52.134;5.596;2022-11-15T09:29:21;28.30;;;17.02;;
19205;SDS011;59358;52.134;5.596;2022-11-15T09:31:48;24.52;;;16.05;;
19205;SDS011;59358;52.134;5.596;2022-11-15T09:34:15;29.30;;;16.35;;
19205;SDS011;59358;52.134;5.596;2022-11-15T09:36:41;23.90;;;15.73;;
19205;SDS011;59358;52.134;5.596;2022-11-15T09:39:08;19.63;;;15.85;;
19205;SDS011;59358;52.134;5.596;2022-11-15T09:41:48;25.75;;;15.45;;
19205;SDS011;59358;52.134;5.596;2022-11-15T09:44:36;23.52;;;15.75;;
19205;SDS011;59358;52.134;5.596;2022-11-15T09:47:16;20.67;;;15.38;;
19205;SDS011;59358;52.134;5.596;2022-11-15T09:50:07;21.13;;;14.95;;
19205;SDS011;59358;52.134;5.596;2022-11-15T09:52:35;22.60;;;16.77;;
19205;SDS011;59358;52.134;5.596;2022-11-15T09:55:07;23.17;;;16.35;;
19205;SDS011;59358;52.134;5.596;2022-11-15T09:57:39;21.63;;;16.55;;
19205;SDS011;59358;52.134;5.596;2022-11-15T10:00:16;21.58;;;14.40;;
19205;SDS011;59358;52.134;5.596;2022-11-15T10:02:56;18.42;;;14.02;;
19205;SDS011;59358;52.134;5.596;2022-11-15T10:05:30;18.98;;;13.27;;
19205;SDS011;59358;52.134;5.596;2022-11-15T10:08:04;17.80;;;13.48;;
19205;SDS011;59358;52.134;5.596;2022-11-15T10:10:38;16.50;;;12.60;;
19205;SDS011;59358;52.134;5.596;2022-11-15T10:13:09;18.70;;;11.70;;
19205;SDS011;59358;52.134;5.596;2022-11-15T10:15:41;16.25;;;10.70;;
19205;SDS011;59358;52.134;5.596;2022-11-15T10:18:14;19.05;;;10.30;;
19205;SDS011;59358;52.134;5.596;2022-11-15T10:20:46;12.68;;;10.18;;
19205;SDS011;59358;52.134;5.596;2022-11-15T10:23:15;14.45;;;9.32;;
19205;SDS011;59358;52.134;5.596;2022-11-15T10:25:45;12.25;;;8.52;;
19205;SDS011;59358;52.134;5.596;2022-11-15T10:28:15;12.75;;;7.97;;
19205;SDS011;59358;52.134;5.596;2022-11-15T10:30:44;9.23;;;6.68;;
19205;SDS011;59358;52.134;5.596;2022-11-15T10:33:21;9.57;;;7.15;;
19205;SDS011;59358;52.134;5.596;2022-11-15T10:38:51;10.40;;;6.25;;
19205;SDS011;59358;52.134;5.596;2022-11-15T10:41:29;14.27;;;6.72;;
19205;SDS011;59358;52.134;5.596;2022-11-15T10:44:08;8.60;;;5.60;;
19205;SDS011;59358;52.134;5.596;2022-11-15T10:47:04;9.18;;;5.60;;
19205;SDS011;59358;52.134;5.596;2022-11-15T10:49:52;7.07;;;4.68;;
19205;SDS011;59358;52.134;5.596;2022-11-15T10:52:24;8.70;;;5.13;;
19205;SDS011;59358;52.134;5.596;2022-11-15T10:54:54;6.45;;;4.60;;
19205;SDS011;59358;52.134;5.596;2022-11-15T10:57:25;5.55;;;4.00;;
19205;SDS011;59358;52.134;5.596;2022-11-15T10:59:57;7.93;;;4.85;;
19205;SDS011;59358;52.134;5.596;2022-11-15T11:02:35;6.70;;;4.82;;
19205;SDS011;59358;52.134;5.596;2022-11-15T11:05:04;7.82;;;5.10;;
19205;SDS011;59358;52.134;5.596;2022-11-15T11:07:35;7.18;;;5.20;;
19205;SDS011;59358;52.134;5.596;2022-11-15T11:10:03;7.97;;;5.50;;
19205;SDS011;59358;52.134;5.596;2022-11-15T11:12:42;7.78;;;5.57;;
19205;SDS011;59358;52.134;5.596;2022-11-15T11:15:12;10.30;;;5.55;;
19205;SDS011;59358;52.134;5.596;2022-11-15T11:17:45;6.47;;;5.78;;
19205;SDS011;59358;52.134;5.596;2022-11-15T11:20:20;8.25;;;4.95;;
19205;SDS011;59358;52.134;5.596;2022-11-15T11:22:56;6.47;;;4.95;;
19205;SDS011;59358;52.134;5.596;2022-11-15T11:25:30;6.65;;;3.90;;
19205;SDS011;59358;52.134;5.596;2022-11-15T11:28:14;7.35;;;4.68;;
19205;SDS011;59358;52.134;5.596;2022-11-15T11:30:58;5.50;;;4.03;;
19205;SDS011;59358;52.134;5.596;2022-11-15T11:33:38;4.13;;;3.80;;
19205;SDS011;59358;52.134;5.596;2022-11-15T11:36:16;4.88;;;3.70;;
19205;SDS011;59358;52.134;5.596;2022-11-15T11:38:51;9.10;;;3.60;;
19205;SDS011;59358;52.134;5.596;2022-11-15T11:41:39;8.93;;;3.50;;
19205;SDS011;59358;52.134;5.596;2022-11-15T11:44:16;4.95;;;3.13;;
19205;SDS011;59358;52.134;5.596;2022-11-15T11:47:10;4.68;;;3.10;;
19205;SDS011;59358;52.134;5.596;2022-11-15T11:49:40;7.00;;;2.95;;
19205;SDS011;59358;52.134;5.596;2022-11-15T11:52:12;4.43;;;2.78;;
19205;SDS011;59358;52.134;5.596;2022-11-15T11:54:45;4.07;;;2.85;;
19205;SDS011;59358;52.134;5.596;2022-11-15T11:57:21;4.68;;;2.70;;
19205;SDS011;59358;52.134;5.596;2022-11-15T11:59:55;5.15;;;2.58;;
19205;SDS011;59358;52.134;5.596;2022-11-15T12:02:30;5.28;;;2.97;;
19205;SDS011;59358;52.134;5.596;2022-11-15T12:05:04;3.75;;;2.50;;
19205;SDS011;59358;52.134;5.596;2022-11-15T12:07:37;3.83;;;2.53;;
19205;SDS011;59358;52.134;5.596;2022-11-15T12:10:12;9.23;;;3.25;;
19205;SDS011;59358;52.134;5.596;2022-11-15T12:12:47;6.32;;;2.70;;
19205;SDS011;59358;52.134;5.596;2022-11-15T12:15:22;7.60;;;3.50;;
19205;SDS011;59358;52.134;5.596;2022-11-15T12:17:53;4.10;;;2.28;;
19205;SDS011;59358;52.134;5.596;2022-11-15T12:20:22;3.42;;;2.40;;
19205;SDS011;59358;52.134;5.596;2022-11-15T12:22:53;4.53;;;2.83;;
19205;SDS011;59358;52.134;5.596;2022-11-15T12:25:24;8.07;;;2.47;;
19205;SDS011;59358;52.134;5.596;2022-11-15T12:27:55;4.15;;;2.55;;
19205;SDS011;59358;52.134;5.596;2022-11-15T12:30:27;4.72;;;2.03;;
19205;SDS011;59358;52.134;5.596;2022-11-15T12:33:05;8.93;;;2.40;;
19205;SDS011;59358;52.134;5.596;2022-11-15T12:35:59;5.88;;;2.13;;
19205;SDS011;59358;52.134;5.596;2022-11-15T12:41:22;8.18;;;2.10;;
19205;SDS011;59358;52.134;5.596;2022-11-15T12:43:50;5.60;;;2.22;;
19205;SDS011;59358;52.134;5.596;2022-11-15T12:46:19;6.13;;;2.15;;
19205;SDS011;59358;52.134;5.596;2022-11-15T12:48:51;6.10;;;2.38;;
19205;SDS011;59358;52.134;5.596;2022-11-15T12:51:20;5.60;;;1.98;;
19205;SDS011;59358;52.134;5.596;2022-11-15T12:53:49;6.97;;;1.98;;
19205;SDS011;59358;52.134;5.596;2022-11-15T12:56:20;5.15;;;2.33;;
19205;SDS011;59358;52.134;5.596;2022-11-15T12:58:49;6.10;;;1.90;;
19205;SDS011;59358;52.134;5.596;2022-11-15T13:04:25;7.53;;;2.08;;
19205;SDS011;59358;52.134;5.596;2022-11-15T13:06:54;4.55;;;2.28;;
19205;SDS011;59358;52.134;5.596;2022-11-15T13:20:57;5.85;;;2.15;;
19205;SDS011;59358;52.134;5.596;2022-11-15T13:23:24;5.65;;;2.00;;
19205;SDS011;59358;52.134;5.596;2022-11-15T13:26:01;5.28;;;1.70;;
19205;SDS011;59358;52.134;5.596;2022-11-15T13:28:42;4.45;;;1.80;;
19205;SDS011;59358;52.134;5.596;2022-11-15T13:31:18;5.40;;;1.80;;
19205;SDS011;59358;52.134;5.596;2022-11-15T13:33:55;4.05;;;1.75;;
19205;SDS011;59358;52.134;5.596;2022-11-15T13:36:27;3.72;;;1.58;;
19205;SDS011;59358;52.134;5.596;2022-11-15T13:38:56;4.80;;;1.70;;
19205;SDS011;59358;52.134;5.596;2022-11-15T13:41:26;6.07;;;2.15;;
19205;SDS011;59358;52.134;5.596;2022-11-15T13:43:54;3.42;;;1.65;;
19205;SDS011;59358;52.134;5.596;2022-11-15T13:46:23;4.63;;;1.42;;
19205;SDS011;59358;52.134;5.596;2022-11-15T13:48:51;3.22;;;1.52;;
19205;SDS011;59358;52.134;5.596;2022-11-15T13:51:22;2.60;;;1.75;;
19205;SDS011;59358;52.134;5.596;2022-11-15T13:53:55;5.30;;;1.73;;
19205;SDS011;59358;52.134;5.596;2022-11-15T13:56:25;4.60;;;1.60;;
19205;SDS011;59358;52.134;5.596;2022-11-15T13:58:54;6.20;;;2.10;;
19205;SDS011;59358;52.134;5.596;2022-11-15T14:01:21;3.92;;;1.50;;
19205;SDS011;59358;52.134;5.596;2022-11-15T14:03:50;3.00;;;2.00;;
19205;SDS011;59358;52.134;5.596;2022-11-15T14:06:21;5.50;;;1.60;;
19205;SDS011;59358;52.134;5.596;2022-11-15T14:09:02;4.75;;;1.65;;
19205;SDS011;59358;52.134;5.596;2022-11-15T14:11:50;7.85;;;2.00;;
19205;SDS011;59358;52.134;5.596;2022-11-15T14:14:19;3.50;;;1.58;;
19205;SDS011;59358;52.134;5.596;2022-11-15T14:16:48;5.90;;;2.08;;
19205;SDS011;59358;52.134;5.596;2022-11-15T14:19:33;4.32;;;1.50;;
19205;SDS011;59358;52.134;5.596;2022-11-15T14:25:13;9.68;;;2.15;;
19205;SDS011;59358;52.134;5.596;2022-11-15T14:27:43;3.88;;;1.30;;
19205;SDS011;59358;52.134;5.596;2022-11-15T14:30:14;4.93;;;1.45;;
19205;SDS011;59358;52.134;5.596;2022-11-15T14:32:44;6.32;;;1.80;;
19205;SDS011;59358;52.134;5.596;2022-11-15T14:35:13;4.20;;;1.30;;
19205;SDS011;59358;52.134;5.596;2022-11-15T14:37:42;3.45;;;0.90;;
19205;SDS011;59358;52.134;5.596;2022-11-15T14:40:13;4.57;;;1.67;;
19205;SDS011;59358;52.134;5.596;2022-11-15T14:42:42;5.90;;;1.30;;
19205;SDS011;59358;52.134;5.596;2022-11-15T14:45:11;6.80;;;1.65;;
19205;SDS011;59358;52.134;5.596;2022-11-15T14:47:40;3.55;;;2.17;;
19205;SDS011;59358;52.134;5.596;2022-11-15T14:50:11;2.85;;;0.95;;
19205;SDS011;59358;52.134;5.596;2022-11-15T14:52:38;5.60;;;1.30;;
19205;SDS011;59358;52.134;5.596;2022-11-15T14:55:11;4.95;;;1.35;;
19205;SDS011;59358;52.134;5.596;2022-11-15T14:57:42;2.65;;;1.58;;
19205;SDS011;59358;52.134;5.596;2022-11-15T15:00:10;4.43;;;1.38;;
19205;SDS011;59358;52.134;5.596;2022-11-15T15:02:38;4.40;;;1.30;;
19205;SDS011;59358;52.134;5.596;2022-11-15T15:05:13;3.85;;;1.17;;
19205;SDS011;59358;52.134;5.596;2022-11-15T15:07:42;3.40;;;1.58;;
19205;SDS011;59358;52.134;5.596;2022-11-15T15:10:09;3.90;;;1.20;;
19205;SDS011;59358;52.134;5.596;2022-11-15T15:12:38;8.48;;;1.83;;